Latest Weather Observations for Bathurst Airport

IDN60801

Issued at 8:05 pm EST Saturday 30 August 2014 (issued every 30 minutes, with the page automatically refreshed every 10 minutes)

About weather observations | Map of weather stations | Latest weather observations for NSW | Other Formats
Station Details ID: 063291 Name: BATHURST AIRPORT AWS Lat: -33.41 Lon: 149.65 Height: 744.5 m
Data from the previous 72 hours. | See also: Recent months for locations in New South Wales
Date/Time
EST
Temp
°C
App
Temp
°C
Dew
Point
Rel
Hum
%
Delta-T
°C
Wind Press
QNH
hPa
Press
MSL
hPa
Rain
since 9 am
mm
Dir
 
Spd
km/h
Gust
km/h
Spd
kts
Gust
kts
30/08:00pm 9.8 6.6 6.7 81 1.5 SSE 13 17 7 9 1023.3 1023.9 0.0
30/07:30pm 9.7 6.5 7.0 83 1.3 SSE 13 15 7 8 1023.1 - 0.0
30/07:00pm 9.5 7.0 6.4 81 1.5 ESE 9 11 5 6 1022.8 1023.5 0.0
30/06:30pm 10.0 7.1 6.7 80 1.6 SE 11 15 6 8 1022.6 - 0.0
30/06:00pm 11.3 9.4 6.8 74 2.2 ESE 6 9 3 5 1022.6 1023.2 0.0
30/05:30pm 12.2 9.8 6.9 70 2.6 SE 9 11 5 6 1022.5 - 0.0
30/05:00pm 12.9 10.0 6.5 65 3.2 SE 11 15 6 8 1022.3 1022.9 0.0
30/04:30pm 13.2 9.9 6.5 64 3.3 ESE 13 19 7 10 1022.2 - 0.0
30/04:00pm 13.4 9.7 6.5 63 3.4 SE 15 20 8 11 1022.2 1022.8 0.0
30/03:30pm 13.4 9.4 6.5 63 3.4 SE 17 28 9 15 1022.2 - 0.0
30/03:00pm 14.3 11.0 6.4 59 3.9 SE 13 17 7 9 1022.2 1022.8 0.0
30/02:30pm 13.9 10.2 6.5 61 3.7 S 15 20 8 11 1022.5 - 0.0
30/02:00pm 14.5 11.3 6.8 60 3.9 S 13 20 7 11 1022.8 1023.5 0.0
30/01:30pm 13.8 9.4 6.4 61 3.7 S 19 26 10 14 1023.0 - 0.0
30/01:00pm 14.9 11.0 7.2 60 3.9 SSE 17 24 9 13 1023.4 1024.0 0.0
30/12:30pm 13.6 9.1 6.2 61 3.7 SE 19 24 10 13 1023.7 - 0.0
30/12:00pm 14.4 10.1 7.7 64 3.4 SE 20 30 11 16 1024.0 1024.7 0.0
30/11:30am 13.8 10.2 6.7 62 3.6 SSE 15 24 8 13 1024.2 - 0.0
30/11:00am 13.0 9.5 7.0 67 3.0 SSE 15 24 8 13 1024.3 1025.0 0.0
30/10:30am 12.4 9.5 6.5 67 2.9 S 11 15 6 8 1024.7 - 0.0
30/10:00am 10.8 8.2 6.2 73 2.2 SW 9 15 5 8 1024.8 1025.4 0.0
30/09:30am 9.3 7.0 5.9 79 1.6 SW 7 13 4 7 1024.8 - 0.0
30/09:00am 7.8 6.3 4.9 82 1.3 W 2 7 1 4 1025.1 1025.8 0.2
30/08:30am 6.6 4.2 4.4 86 1.0 SSW 6 9 3 5 1025.1 - 0.2
30/08:00am 5.2 3.1 3.7 90 0.7 SSW 4 7 2 4 1025.0 1025.6 0.2
30/07:30am 3.2 1.7 3.1 99 0.0 CALM 0 6 0 3 1024.9 - 0.2
30/07:00am 2.1 -0.7 2.0 99 0.0 NNE 6 9 3 5 1024.9 1025.5 0.2
30/06:30am 2.1 -0.9 1.8 98 0.1 S 7 9 4 5 1024.7 - 0.2
30/06:00am 1.7 -1.1 -0.4 86 0.8 SE 4 7 2 4 1024.3 1025.0 0.2
30/05:30am 2.9 -0.5 1.9 93 0.4 SE 9 11 5 6 1024.2 - 0.2
30/05:00am 1.4 -1.7 1.3 99 0.0 ENE 7 9 4 5 1024.3 1025.0 0.2
30/04:30am 0.3 -3.5 -0.5 94 0.3 NE 9 11 5 6 1024.3 - 0.2
30/04:00am 2.7 -0.9 0.8 87 0.8 S 9 9 5 5 1024.1 1024.8 0.2
30/03:30am 2.9 -0.2 1.3 89 0.6 SSW 7 13 4 7 1024.1 - 0.2
30/03:00am 2.5 -0.4 1.3 92 0.5 S 6 7 3 4 1024.1 1024.8 0.2
30/02:30am 2.6 -0.9 1.3 91 0.5 S 9 11 5 6 1024.2 - 0.2
30/02:00am 3.5 -0.3 1.5 87 0.8 S 11 15 6 8 1024.3 1025.0 0.2
30/01:30am 3.7 -0.5 1.4 85 0.9 S 13 17 7 9 1024.5 - 0.2
30/01:00am 4.7 0.2 2.1 83 1.1 S 15 17 8 9 1024.9 1025.5 0.2
30/12:30am 4.1 0.4 2.1 87 0.8 S 11 15 6 8 1025.0 - 0.2
30/12:00am 4.7 0.6 2.2 84 1.0 S 13 17 7 9 1025.1 1025.8 0.2
 
Date/Time
EST
Temp
°C
App
Temp
°C
Dew
Point
Rel
Hum
%
Delta-T
°C
Wind Press
QNH
hPa
Press
MSL
hPa
Rain
since 9 am
mm
Dir
 
Spd
km/h
Gust
km/h
Spd
kts
Gust
kts
29/11:30pm 4.9 1.2 2.6 85 1.0 S 11 15 6 8 1025.1 - 0.2
29/11:00pm 5.0 1.3 2.5 84 1.1 S 11 13 6 7 1025.2 1025.9 0.2
29/10:30pm 3.9 1.1 1.8 86 0.9 S 6 9 3 5 1025.4 - 0.2
29/10:00pm 4.2 0.8 2.1 86 0.9 SW 9 11 5 6 1025.5 1026.2 0.2
29/09:30pm 5.3 1.9 2.0 79 1.4 S 9 13 5 7 1025.5 - 0.2
29/09:00pm 5.8 2.4 2.1 77 1.6 SSE 9 13 5 7 1025.6 1026.3 0.2
29/08:30pm 6.4 2.7 2.1 74 1.8 S 11 15 6 8 1025.5 - 0.2
29/08:00pm 6.8 3.4 1.9 71 2.1 SE 9 13 5 7 1025.4 1026.1 0.2
29/07:30pm 7.8 4.4 2.1 67 2.5 SE 9 13 5 7 1025.3 - 0.2
29/07:00pm 8.8 4.3 2.4 64 2.8 S 15 19 8 10 1025.1 1025.8 0.2
29/06:30pm 9.6 5.1 2.2 60 3.3 S 15 20 8 11 1024.9 - 0.2
29/06:00pm 10.2 5.3 1.8 56 3.7 S 17 20 9 11 1024.8 1025.4 0.2
29/05:30pm 11.4 6.2 2.2 53 4.1 S 19 24 10 13 1024.5 - 0.2
29/05:00pm 12.9 8.2 3.0 51 4.6 S 17 20 9 11 1024.2 1024.9 0.2
29/04:30pm 13.9 8.5 2.2 45 5.4 S 20 28 11 15 1023.9 - 0.2
29/04:00pm 14.6 8.8 2.5 44 5.6 S 22 30 12 16 1023.8 1024.4 0.2
29/03:30pm 14.8 10.0 2.7 44 5.6 S 17 22 9 12 1023.8 - 0.2
29/03:00pm 15.8 11.3 4.2 46 5.6 S 17 28 9 15 1024.0 1024.7 0.2
29/02:30pm 14.5 10.8 2.1 43 5.7 SSW 11 20 6 11 1024.2 - 0.2
29/02:00pm 13.6 9.4 1.9 45 5.3 S 13 24 7 13 1024.5 1025.2 0.2
29/01:30pm 14.0 9.6 2.6 46 5.3 S 15 22 8 12 1024.7 - 0.2
29/01:00pm 13.5 9.2 3.0 49 4.9 SSW 15 24 8 13 1025.1 1025.8 0.2
29/12:30pm 13.1 8.8 3.5 52 4.5 SSW 15 26 8 14 1025.5 - 0.2
29/12:00pm 13.0 9.3 4.2 55 4.2 SW 13 17 7 9 1026.2 1026.8 0.0
29/11:30am 12.2 8.5 4.4 59 3.7 S 13 24 7 13 1026.6 - 0.0
29/11:00am 10.9 7.0 3.2 59 3.5 S 13 19 7 10 1026.9 1027.6 0.0
29/10:30am 10.2 6.9 4.8 69 2.5 WSW 11 17 6 9 1027.3 - 0.0
29/10:00am 8.7 5.8 4.7 76 1.8 WSW 9 13 5 7 1027.7 1028.4 0.0
29/09:30am 7.4 4.9 4.9 84 1.2 WSW 7 9 4 5 1028.0 - 0.0
29/09:00am 6.2 3.8 4.5 89 0.8 WSW 6 7 3 4 1028.1 1028.8 0.0
29/08:30am 5.0 3.6 3.8 92 0.5 CALM 0 0 0 0 1028.1 - 0.0
29/08:00am 3.3 1.5 3.2 99 0.0 NNE 2 7 1 4 1028.1 1028.8 0.0
29/07:30am 2.5 0.9 2.4 99 0.0 CALM 0 0 0 0 1027.8 - 0.0
29/07:00am 1.2 -0.6 1.1 99 0.0 CALM 0 6 0 3 1027.4 1028.2 0.0
29/06:59am 1.2 -0.6 1.1 99 0.0 CALM 0 6 0 3 1027.4 - 0.0
29/06:32am -0.4 -3.6 -0.5 99 0.0 ENE 6 7 3 4 1027.1 - 0.0
29/06:30am -0.8 -4.1 -0.9 99 0.0 ENE 6 7 3 4 1027.1 - 0.0
29/06:00am 0.5 -2.6 0.4 99 0.0 E 6 7 3 4 1026.9 1027.6 0.0
29/05:30am 0.2 -1.8 0.1 99 0.0 CALM 0 0 0 0 1026.7 - 0.0
29/05:00am 0.0 -2.8 -0.1 99 0.0 SW 4 6 2 3 1026.5 1027.2 0.0
29/04:30am 0.3 -3.4 0.2 99 0.0 SW 9 11 5 6 1026.5 - 0.0
29/04:00am 0.2 -3.5 0.1 99 0.0 SSW 9 13 5 7 1026.3 1027.0 0.0
29/03:30am 2.2 -1.9 2.1 99 0.0 SE 13 17 7 9 1026.3 - 0.0
29/03:00am 2.4 -2.1 2.3 99 0.0 SE 15 17 8 9 1026.3 1027.0 0.0
29/02:30am 2.8 -1.6 2.7 99 0.0 S 15 19 8 10 1026.6 - 0.0
29/02:00am 2.6 -0.3 2.5 99 0.0 S 7 9 4 5 1026.8 1027.5 0.0
29/01:30am 3.0 0.2 2.9 99 0.0 S 7 7 4 4 1027.1 - 0.0
29/01:00am 3.2 0.0 3.1 99 0.0 SSW 9 11 5 6 1027.4 1028.2 0.0
29/12:30am 2.9 0.1 1.9 93 0.4 S 6 7 3 4 1027.6 - 0.0
29/12:00am 4.1 1.0 3.4 95 0.3 S 9 11 5 6 1027.8 1028.5 0.0
 
Date/Time
EST
Temp
°C
App
Temp
°C
Dew
Point
Rel
Hum
%
Delta-T
°C
Wind Press
QNH
hPa
Press
MSL
hPa
Rain
since 9 am
mm
Dir
 
Spd
km/h
Gust
km/h
Spd
kts
Gust
kts
28/11:30pm 4.3 1.6 3.6 95 0.3 S 7 9 4 5 1027.9 - 0.0
28/11:00pm 4.5 1.3 3.3 92 0.5 S 9 11 5 6 1028.0 1028.7 0.0
28/10:30pm 5.4 2.3 3.7 89 0.7 SE 9 11 5 6 1028.0 - 0.0
28/10:00pm 5.7 2.3 4.2 90 0.7 S 11 13 6 7 1028.1 1028.8 0.0
28/09:30pm 5.0 2.3 3.7 91 0.6 SW 7 9 4 5 1028.0 - 0.0
28/09:00pm 5.4 4.0 3.3 86 0.9 CALM 0 0 0 0 1027.9 1028.6 0.0
28/08:30pm 6.4 3.4 3.9 84 1.1 SW 9 11 5 6 1027.8 - 0.0
28/08:00pm 7.9 4.2 4.3 78 1.6 ESE 13 19 7 10 1027.6 1028.3 0.0
28/07:30pm 8.2 4.5 4.4 77 1.7 ESE 13 20 7 11 1027.4 - 0.0
28/07:00pm 8.1 4.4 4.5 78 1.6 ESE 13 15 7 8 1027.4 1028.2 0.0
28/06:30pm 8.3 4.6 4.5 77 1.7 E 13 20 7 11 1027.2 - 0.0
28/06:00pm 9.0 5.7 4.4 73 2.1 E 11 20 6 11 1026.9 1027.6 0.0
28/05:30pm 9.8 6.2 4.8 71 2.3 ESE 13 19 7 10 1026.7 - 0.0
28/05:00pm 11.5 7.1 4.9 64 3.1 E 17 26 9 14 1026.3 1027.0 0.0
28/04:30pm 13.1 9.6 3.7 53 4.4 ESE 11 17 6 9 1025.8 - 0.0
28/04:00pm 13.0 8.9 4.2 55 4.2 ESE 15 19 8 10 1025.8 1026.5 0.0
28/03:30pm 13.2 9.4 3.8 53 4.4 SE 13 19 7 10 1025.6 - 0.0
28/03:00pm 14.4 11.2 3.2 47 5.2 E 9 15 5 8 1025.6 1026.3 0.0
28/02:30pm 13.7 9.4 3.2 49 4.9 SE 15 20 8 11 1025.7 - 0.0
28/02:00pm 13.2 9.0 3.8 53 4.4 SE 15 19 8 10 1025.8 1026.5 0.0
28/01:30pm 12.9 8.4 2.2 48 4.9 ESE 15 28 8 15 1025.9 - 0.0
28/01:00pm 12.7 7.7 3.4 53 4.3 SSE 19 24 10 13 1026.1 1026.7 0.0
28/12:30pm 13.7 8.7 4.6 54 4.4 E 20 28 11 15 1026.2 - 0.0
28/12:00pm 11.5 7.2 5.2 65 3.0 SE 17 26 9 14 1026.7 1027.4 0.0
28/11:30am 11.3 6.4 5.2 66 2.9 ESE 20 33 11 18 1026.9 - 0.0
28/11:00am 11.4 6.6 5.7 68 2.7 ESE 20 30 11 16 1027.0 1027.7 0.0
28/10:30am 11.4 7.1 5.3 66 2.9 ESE 17 24 9 13 1027.1 - 0.0
28/10:00am 10.7 6.1 5.5 70 2.5 SE 19 24 10 13 1027.2 1027.9 0.0
28/09:30am 10.3 5.4 5.3 71 2.4 ESE 20 33 11 18 1026.9 - 0.0
28/09:00am 10.1 6.3 5.9 75 2.0 SE 15 24 8 13 1026.9 1027.6 0.0
28/08:30am 9.7 6.3 6.1 78 1.7 SSE 13 20 7 11 1026.7 - 0.0
28/08:00am 8.8 5.8 6.2 84 1.2 S 11 15 6 8 1026.3 1027.0 0.0
28/07:30am 7.9 4.4 5.5 85 1.1 SSW 13 19 7 10 1025.8 - 0.0
28/07:00am 7.5 3.5 5.0 84 1.1 SSE 15 19 8 10 1025.7 1026.4 0.0
28/06:30am 6.8 3.1 4.6 86 1.0 SSE 13 15 7 8 1025.6 - 0.0
28/06:00am 6.2 3.8 4.4 88 0.8 SSE 6 11 3 6 1025.5 1026.2 0.0
28/05:30am 6.8 3.5 4.6 86 1.0 SSE 11 15 6 8 1025.5 - 0.0
28/05:00am 5.7 2.6 5.6 99 0.0 S 11 15 6 8 1025.3 1026.0 0.0
28/04:30am 2.4 -1.0 2.1 98 0.1 SW 9 11 5 6 1025.0 - 0.0
28/04:00am 1.9 -1.6 1.5 97 0.2 SSW 9 11 5 6 1024.8 1025.4 0.0
28/03:30am 1.9 -2.0 1.2 95 0.3 SW 11 11 6 6 1024.7 - 0.0
28/03:00am 2.6 -1.0 0.3 85 0.9 SSW 9 13 5 7 1024.8 1025.4 0.0
28/02:30am 4.3 0.5 1.8 84 1.0 S 11 13 6 7 1025.0 - 0.0
28/02:00am 4.3 -0.2 2.3 87 0.8 S 15 17 8 9 1025.4 1026.1 0.0
28/01:30am 3.2 -0.6 1.6 89 0.7 S 11 13 6 7 1025.5 - 0.0
28/01:00am 2.9 -0.6 1.4 90 0.6 SSW 9 11 5 6 1025.8 1026.5 0.0
28/12:30am 2.7 -0.7 1.7 93 0.4 SW 9 11 5 6 1026.1 - 0.0
28/12:00am 3.6 -0.5 2.1 90 0.6 SSW 13 13 7 7 1025.9 1026.6 0.0
 
Date/Time
EST
Temp
°C
App
Temp
°C
Dew
Point
Rel
Hum
%
Delta-T
°C
Wind Press
QNH
hPa
Press
MSL
hPa
Rain
since 9 am
mm
Dir
 
Spd
km/h
Gust
km/h
Spd
kts
Gust
kts
27/11:30pm 3.6 0.2 2.1 90 0.6 SW 9 13 5 7 1026.1 - 0.0
27/11:00pm 4.9 1.6 2.3 83 1.1 S 9 11 5 6 1026.4 1027.1 0.0
27/10:30pm 5.7 1.7 2.7 81 1.3 SSE 13 15 7 8 1026.3 - 0.0
27/10:00pm 6.1 1.9 3.6 84 1.1 SSE 15 20 8 11 1026.3 1027.0 0.0
27/09:30pm 5.6 1.7 3.4 86 1.0 SSE 13 15 7 8 1026.1 - 0.0
27/09:00pm 6.2 2.8 4.0 86 1.0 SSE 11 17 6 9 1026.3 1027.0 0.0
27/08:30pm 6.6 3.2 3.9 83 1.2 SSE 11 13 6 7 1026.4 - 0.0

Other Formats:

Comma delimited format used in spreadsheet applications
http://www.bom.gov.au/fwo/IDN60801/IDN60801.94729.axf

JavaScript Object Notation format (JSON) in row-major order
http://www.bom.gov.au/fwo/IDN60801/IDN60801.94729.json